Eldorado — PEEA — position and weather

sailwx.info

Track history (hours):
 
Tides and Currents Weather Stations Pressure Air Temp Water Temp Dewpoint Dewpoint Depression Visibility Wind Speed Wind Dir Waves Ship Positions

Eldorado

Last reported at 2017-Mar-22 21:30 UTC. Time now 2017-Mar-22 22:13 UTC.
Position N 18°21' W 064°36'.

Length 38 m; draft 3 m.

Type: Sailing vessel. MMSI: 244670000.

Date/timePositionNaut miles runAvg speedWind from/ knotsBaromVisibWave heightAir tempDewpointWater temp
2017-Mar-22 21:30N 18°21' W 064°36'0 0.0
2017-Mar-22 20:31N 18°21' W 064°36'0 0.0
2017-Mar-22 19:29N 18°21' W 064°36'0 0.0
2017-Mar-22 18:33N 18°21' W 064°36'0 0.0
2017-Mar-22 17:31N 18°21' W 064°36'0 0.0
2017-Mar-22 16:33N 18°21' W 064°36'0 0.0
2017-Mar-22 15:20N 18°21' W 064°36'2 3.2
2017-Mar-22 14:33N 18°24' W 064°36'0 0.0
2017-Mar-20 19:33N 18°23' W 064°37'2 2.0
2017-Mar-20 18:33N 18°21' W 064°36'0 0.2
2017-Mar-20 17:33N 18°21' W 064°36'  
2017-Mar-17 21:15N 18°25' W 064°36'1 1.1
2017-Mar-17 20:28N 18°24' W 064°36'3 3.0
2017-Mar-17 19:32N 18°21' W 064°36'2 2.2
2017-Mar-17 18:34N 18°23' W 064°36'  
Track history (hours):
 
Tides and Currents Weather Stations Pressure Air Temp Water Temp Dewpoint Dewpoint Depression Visibility Wind Speed Wind Dir Waves Ship Positions

Eldorado

Last reported at 2017-Mar-22 21:30 UTC. Time now 2017-Mar-22 22:13 UTC.
Position N 18°21' W 064°36'.

Length 38 m; draft 3 m.

Type: Sailing vessel. MMSI: 244670000.

Date/timePositionNaut miles runAvg speedWind from/ knotsBaromVisibWave heightAir tempDewpointWater temp
2017-Mar-22 21:30N 18°21' W 064°36'0 0.0
2017-Mar-22 20:31N 18°21' W 064°36'0 0.0
2017-Mar-22 19:29N 18°21' W 064°36'0 0.0
2017-Mar-22 18:33N 18°21' W 064°36'0 0.0
2017-Mar-22 17:31N 18°21' W 064°36'0 0.0
2017-Mar-22 16:33N 18°21' W 064°36'0 0.0
2017-Mar-22 15:20N 18°21' W 064°36'2 3.2
2017-Mar-22 14:33N 18°24' W 064°36'0 0.0
2017-Mar-20 19:33N 18°23' W 064°37'2 2.0
2017-Mar-20 18:33N 18°21' W 064°36'0 0.2
2017-Mar-20 17:33N 18°21' W 064°36'  
2017-Mar-17 21:15N 18°25' W 064°36'1 1.1
2017-Mar-17 20:28N 18°24' W 064°36'3 3.0
2017-Mar-17 19:32N 18°21' W 064°36'2 2.2
2017-Mar-17 18:34N 18°23' W 064°36'  

Dump ship's entire track history